Kezdőlap
METAR-TAF:

METAR-TAF

Repülőterek :

Teherán, Irán

földrajzi szélesség: 35-41N, földrajzi hosszúság: 051-21E, magasság: 1204 m

Jelenlegi meteorológiai megfigyelések

A jelentés 21 perccel ezelõtt készült, 16:00 UTC
Kelet-délkeleti szél 4 kt
Hőmérséklet 37°C
Páratartalom 10%
Légköri nyomás 1006 hPa
Látótávolság 10 km, vagy több
Szórványos felhőzet 10000 lábon

METAR: OIII 181600Z 12004KT 9999 SCT100 37/01 Q1006 A2972 NOSIG

Idő: 20:51 (16:21 UTC)

Előrejelzés

A jelentés 5 órával és 11 perccel ezelõtt készült, 11:10 UTC
Az előrejelzés 18-én 12 óra UTC és 19-én 18 óra UTC között érvényes
Délkeleti szél 10 kt
Látótávolság: 8000 m
18-én 12 óra UTC és 18-én 17 óra UTC között ideiglenes
Délkeleti szél 19 kt

TAF: OIII 181110Z 1812/1918 13005MPS 8000 NSC TEMPO 1812/1817 13010MPS

Meteorológiai megfigyelések és előrejelzések több, mint 4000 repülőtéren (METAR és TAF jelentéseket).

A térképen piros és sárga pontok jelzik az elérhető meteorológiai állomásokat.

Mozgassa az egeret a pont fölött, hogy megjelenjen az állomás neve.

Azután kattintson az időjárási megfigyelések és előrejelzések megtekintéséhez.

A térkép megváltoztatása: kattintson a fekete keresztel jelölt zöld gombra ráközelítéshez, a vonallal jelölt zöld gombra távolításhoz, vagy a zöld nyilakra a szomszédos térképek eléréséhez.


METAR-TAF: